Time;durP1;ratioP1;P1;durP2;ratioP2;P2;SDS_P1;SDS_P2;PMS_P1;PMS_P2;Temp;Humidity;BMP_temperature;BMP_pressure;BME280_temperature;BME280_humidity;BME280_pressure;Samples;Min_cycle;Max_cycle;Signal;HPM_P1;HPM_P2
2021/03/10 00:05:01;;;;;;;24.60;13.73;;;;;;;1.51;100.00;98393.64;3653205;80;43253;-19
2021/03/10 00:10:09;;;;;;;27.10;14.10;;;;;;;1.49;100.00;98382.27;3687385;79;43684;-19
2021/03/10 00:15:16;;;;;;;31.37;15.23;;;;;;;1.53;100.00;98390.88;3634943;80;44076;-19
2021/03/10 00:20:23;;;;;;;27.07;15.27;;;;;;;1.59;100.00;98386.98;3690511;79;43471;-20
2021/03/10 00:25:29;;;;;;;26.43;14.53;;;;;;;1.59;100.00;98390.47;3676044;79;44047;-20
2021/03/10 00:30:35;;;;;;;31.70;14.83;;;;;;;1.61;100.00;98395.66;3684370;79;43698;-20
2021/03/10 00:35:42;;;;;;;28.80;15.57;;;;;;;1.62;100.00;98389.39;3699383;79;44036;-19
2021/03/10 00:40:47;;;;;;;25.43;14.20;;;;;;;1.57;100.00;98384.41;3589702;81;43766;-20
2021/03/10 00:45:54;;;;;;;28.07;15.13;;;;;;;1.55;100.00;98387.64;3722313;78;44126;-20
2021/03/10 00:51:00;;;;;;;28.27;15.30;;;;;;;1.57;100.00;98385.73;3728449;78;43668;-20
2021/03/10 00:56:06;;;;;;;29.20;15.10;;;;;;;1.59;100.00;98380.34;3727983;78;44073;-20
2021/03/10 01:01:12;;;;;;;29.27;15.60;;;;;;;1.59;100.00;98377.68;3731920;78;43189;-19
2021/03/10 01:06:23;;;;;;;28.60;15.23;;;;;;;1.63;100.00;98382.67;3732284;78;42958;-20
2021/03/10 01:11:26;;;;;;;29.50;16.40;;;;;;;1.64;100.00;98379.06;3735429;78;43721;-20
2021/03/10 01:16:32;;;;;;;27.10;15.17;;;;;;;1.68;100.00;98385.00;3708545;78;44046;-20
2021/03/10 01:21:39;;;;;;;27.67;15.27;;;;;;;1.69;100.00;98376.92;3704673;79;43998;-20
2021/03/10 01:26:45;;;;;;;27.33;15.33;;;;;;;1.73;100.00;98378.05;3672961;80;44759;-20
2021/03/10 01:31:51;;;;;;;23.60;13.33;;;;;;;1.73;100.00;98373.56;3716029;79;44529;-20
2021/03/10 01:36:57;;;;;;;26.77;14.93;;;;;;;1.78;100.00;98371.45;3657704;79;44054;-20
2021/03/10 01:42:03;;;;;;;27.20;14.63;;;;;;;1.80;100.00;98366.89;3653813;80;43593;-18
2021/03/10 01:47:09;;;;;;;26.17;14.97;;;;;;;1.82;100.00;98371.59;3649423;80;43751;-21
2021/03/10 01:52:17;;;;;;;25.67;13.57;;;;;;;1.83;100.00;98367.98;3615607;80;43379;-18
2021/03/10 01:57:23;;;;;;;25.93;14.97;;;;;;;1.85;100.00;98365.23;3704578;79;44491;-18
2021/03/10 02:02:29;;;;;;;28.67;14.97;;;;;;;1.83;100.00;98360.02;3688216;79;43556;-18
2021/03/10 02:07:39;;;;;;;27.73;14.47;;;;;;;1.82;100.00;98366.28;3698776;79;43579;-18
2021/03/10 02:12:48;;;;;;;25.60;14.27;;;;;;;1.83;100.00;98365.82;3634851;80;44102;-18
2021/03/10 02:17:58;;;;;;;28.97;15.00;;;;;;;1.82;100.00;98358.80;3701948;79;43706;-19
2021/03/10 02:23:21;;;;;;;28.10;14.97;;;;;;;1.78;100.00;98354.66;3678536;79;43278;-20
2021/03/10 02:28:28;;;;;;;24.37;13.80;;;;;;;1.79;100.00;98362.53;3645642;80;43392;-18
2021/03/10 02:33:35;;;;;;;24.63;14.90;;;;;;;1.82;100.00;98370.76;3638531;80;44076;-18
2021/03/10 02:38:44;;;;;;;28.10;15.10;;;;;;;1.78;100.00;98370.13;3683464;79;43021;-19
2021/03/10 02:43:51;;;;;;;27.17;14.97;;;;;;;1.77;100.00;98366.23;3684182;79;44053;-18
2021/03/10 02:48:58;;;;;;;25.03;14.97;;;;;;;1.79;100.00;98363.86;3655381;80;43356;-18
2021/03/10 02:54:05;;;;;;;27.87;15.00;;;;;;;1.81;100.00;98363.28;3641969;80;43669;-18
2021/03/10 02:59:11;;;;;;;30.33;15.97;;;;;;;1.82;100.00;98365.45;3672918;79;44053;-19
2021/03/10 03:04:17;;;;;;;25.67;13.80;;;;;;;1.80;100.00;98370.87;3673422;79;44192;-19
2021/03/10 03:09:23;;;;;;;26.20;14.57;;;;;;;1.79;100.00;98374.48;3653706;79;43987;-18
2021/03/10 03:14:32;;;;;;;29.37;16.10;;;;;;;1.81;100.00;98367.27;3725826;79;44063;-18
2021/03/10 03:19:38;;;;;;;29.63;15.70;;;;;;;1.85;100.00;98361.26;3716238;79;43121;-17
2021/03/10 03:24:45;;;;;;;27.90;16.03;;;;;;;1.89;100.00;98371.18;3715262;79;44009;-18
2021/03/10 03:29:50;;;;;;;27.70;15.67;;;;;;;1.92;100.00;98375.80;3654182;80;43699;-18
2021/03/10 03:34:56;;;;;;;31.70;16.43;;;;;;;1.94;100.00;98375.70;3647683;80;44043;-18
2021/03/10 03:40:07;;;;;;;28.13;15.33;;;;;;;1.94;100.00;98371.23;3734569;78;43324;-18
2021/03/10 03:45:16;;;;;;;28.00;15.07;;;;;;;1.97;100.00;98375.47;3753036;78;43951;-18
2021/03/10 03:50:23;;;;;;;24.90;14.80;;;;;;;1.97;100.00;98382.11;3687323;79;44066;-18
2021/03/10 03:55:29;;;;;;;27.97;15.60;;;;;;;1.97;100.00;98381.65;3703234;79;44095;-18
2021/03/10 04:00:35;;;;;;;28.67;15.73;;;;;;;1.98;100.00;98395.77;3685807;79;43426;-17
2021/03/10 04:05:42;;;;;;;28.37;14.93;;;;;;;1.97;100.00;98392.73;3679562;79;43454;-18
2021/03/10 04:10:48;;;;;;;29.33;15.50;;;;;;;1.94;100.00;98398.29;3678769;79;44048;-18
2021/03/10 04:15:53;;;;;;;30.40;16.80;;;;;;;1.96;100.00;98411.83;3657698;80;44907;-17
2021/03/10 04:21:00;;;;;;;30.50;16.90;;;;;;;1.97;100.00;98414.00;3678728;79;43685;-18
2021/03/10 04:26:06;;;;;;;32.57;16.90;;;;;;;1.84;100.00;98408.20;3676423;79;44237;-18
2021/03/10 04:31:11;;;;;;;32.07;16.93;;;;;;;1.74;100.00;98424.91;3677976;79;44582;-19
2021/03/10 04:36:18;;;;;;;32.53;17.17;;;;;;;1.74;100.00;98428.39;3660280;79;44483;-19
2021/03/10 04:41:24;;;;;;;30.67;16.73;;;;;;;1.69;100.00;98422.07;3689283;79;44269;-16
2021/03/10 04:46:30;;;;;;;32.43;17.33;;;;;;;1.73;100.00;98428.02;3666191;79;43349;-17
2021/03/10 04:51:36;;;;;;;33.20;16.70;;;;;;;1.71;100.00;98429.92;3675744;79;44053;-17
2021/03/10 04:56:42;;;;;;;30.53;16.40;;;;;;;1.70;100.00;98426.92;3652481;79;43669;-17
2021/03/10 05:01:51;;;;;;;35.73;18.00;;;;;;;1.73;100.00;98428.51;3710595;79;43737;-17
2021/03/10 05:06:57;;;;;;;32.13;16.60;;;;;;;1.71;100.00;98431.74;3725169;79;43407;-17
2021/03/10 05:12:03;;;;;;;35.90;17.97;;;;;;;1.72;100.00;98436.94;3696070;79;43310;-18
2021/03/10 05:17:11;;;;;;;34.03;19.73;;;;;;;1.73;100.00;98434.66;3716134;79;44414;-17
2021/03/10 05:22:17;;;;;;;31.97;17.50;;;;;;;1.76;100.00;98431.80;3688412;79;43668;-17
2021/03/10 05:27:24;;;;;;;31.67;17.00;;;;;;;1.78;100.00;98438.33;3696955;79;43672;-17
2021/03/10 05:32:30;;;;;;;28.50;15.23;;;;;;;1.77;100.00;98430.84;3678998;79;44239;-17
2021/03/10 05:37:36;;;;;;;34.40;19.23;;;;;;;1.80;100.00;98424.46;3681170;79;43733;-17
2021/03/10 05:42:42;;;;;;;37.70;18.77;;;;;;;1.83;100.00;98423.77;3670761;79;44082;-17
2021/03/10 05:47:50;;;;;;;31.60;17.40;;;;;;;1.83;100.00;98435.72;3705273;79;44695;-17
2021/03/10 05:52:56;;;;;;;32.37;17.23;;;;;;;1.84;100.00;98443.23;3675360;79;44864;-17
2021/03/10 05:58:02;;;;;;;33.60;16.90;;;;;;;1.82;100.00;98441.98;3716677;79;44192;-17
2021/03/10 06:03:09;;;;;;;32.83;17.97;;;;;;;1.77;100.00;98454.75;3678426;79;44510;-17
2021/03/10 06:08:15;;;;;;;34.50;18.07;;;;;;;1.81;100.00;98458.05;3679129;79;43997;-17
2021/03/10 06:13:23;;;;;;;31.33;17.03;;;;;;;1.82;100.00;98457.92;3664921;79;44109;-19
2021/03/10 06:18:31;;;;;;;36.23;18.63;;;;;;;1.82;100.00;98460.59;3667232;79;44064;-17
2021/03/10 06:23:40;;;;;;;33.53;17.43;;;;;;;1.74;100.00;98460.27;3667773;79;43722;-17
2021/03/10 06:28:46;;;;;;;32.30;17.47;;;;;;;1.70;100.00;98469.42;3673004;79;44704;-16
2021/03/10 06:34:04;;;;;;;38.57;18.17;;;;;;;1.60;100.00;98481.59;3649123;79;43384;-17
2021/03/10 06:39:11;;;;;;;45.70;21.33;;;;;;;1.61;100.00;98477.98;3682821;79;43411;-17
2021/03/10 06:44:19;;;;;;;41.50;21.00;;;;;;;1.64;100.00;98482.64;3686135;79;44998;-17
2021/03/10 06:49:26;;;;;;;38.57;19.77;;;;;;;1.68;100.00;98485.44;3695200;79;44555;-18
2021/03/10 06:54:32;;;;;;;43.93;21.33;;;;;;;1.72;100.00;98493.20;3702817;79;44086;-18
2021/03/10 06:59:42;;;;;;;39.60;19.90;;;;;;;1.80;100.00;98494.86;3675654;80;44047;-17
2021/03/10 07:04:50;;;;;;;42.33;20.70;;;;;;;1.85;100.00;98496.73;3575121;82;43773;-16
2021/03/10 07:09:56;;;;;;;41.80;21.40;;;;;;;1.89;100.00;98498.70;3651011;79;43447;-18
2021/03/10 07:15:04;;;;;;;43.47;21.27;;;;;;;2.01;100.00;98503.18;3557609;82;43408;-17
2021/03/10 07:20:13;;;;;;;39.53;20.37;;;;;;;2.09;100.00;98520.77;3697263;79;43664;-24
2021/03/10 07:25:24;;;;;;;47.00;21.80;;;;;;;2.08;100.00;98525.71;3658198;80;43639;-17
2021/03/10 07:30:38;;;;;;;43.03;22.03;;;;;;;2.18;100.00;98537.03;3574421;82;43435;-17
2021/03/10 07:35:55;;;;;;;43.10;22.07;;;;;;;2.11;100.00;98545.44;3701965;79;42920;-18
2021/03/10 07:41:03;;;;;;;43.17;21.10;;;;;;;2.19;100.00;98546.71;3693031;79;43685;-19
2021/03/10 07:46:29;;;;;;;45.60;21.23;;;;;;;2.31;100.00;98550.73;3676438;79;43730;-20
2021/03/10 07:51:37;;;;;;;40.43;20.13;;;;;;;2.49;100.00;98533.59;3668977;79;43391;-17
2021/03/10 07:56:44;;;;;;;40.33;19.87;;;;;;;2.67;100.00;98526.97;3696119;79;43257;-18
2021/03/10 08:01:54;;;;;;;39.40;19.97;;;;;;;2.86;100.00;98529.17;3678606;79;43581;-17
2021/03/10 08:07:02;;;;;;;37.10;20.80;;;;;;;3.03;100.00;98532.45;3693978;79;43015;-18
2021/03/10 08:12:10;;;;;;;39.27;20.97;;;;;;;3.12;100.00;98539.77;3692521;79;43260;-25
2021/03/10 08:17:24;;;;;;;36.63;19.63;;;;;;;3.30;100.00;98548.23;3698942;79;43856;-17
2021/03/10 08:22:31;;;;;;;32.63;18.23;;;;;;;3.29;100.00;98547.85;3667254;79;43678;-19
2021/03/10 08:27:38;;;;;;;32.87;18.60;;;;;;;3.50;100.00;98553.89;3674432;79;43049;-19
2021/03/10 08:32:47;;;;;;;35.57;19.17;;;;;;;3.68;100.00;98551.21;3663012;79;43452;-19
2021/03/10 08:37:59;;;;;;;34.07;17.97;;;;;;;3.83;100.00;98557.67;3714423;79;43686;-17
2021/03/10 08:43:06;;;;;;;31.73;18.00;;;;;;;3.92;100.00;98562.33;3733288;78;44098;-19
2021/03/10 08:48:15;;;;;;;30.07;16.80;;;;;;;3.93;100.00;98572.03;3733577;79;44014;-19
2021/03/10 08:53:24;;;;;;;31.60;17.07;;;;;;;4.13;100.00;98565.66;3725693;78;43380;-20
2021/03/10 08:58:32;;;;;;;29.93;17.10;;;;;;;4.07;100.00;98556.78;3718598;79;43761;-20
2021/03/10 09:03:44;;;;;;;28.90;16.40;;;;;;;4.23;100.00;98543.98;3693862;79;44387;-19
2021/03/10 09:08:52;;;;;;;31.70;17.67;;;;;;;4.44;100.00;98555.30;3712316;79;43726;-17
2021/03/10 09:14:01;;;;;;;31.37;17.23;;;;;;;4.54;100.00;98563.44;3719852;79;43671;-19
2021/03/10 09:19:12;;;;;;;28.70;16.57;;;;;;;4.52;100.00;98564.03;3721111;79;26984;-30
2021/03/10 09:24:20;;;;;;;26.10;14.80;;;;;;;4.66;100.00;98557.61;3722341;79;26358;-20
2021/03/10 09:29:32;;;;;;;28.17;15.97;;;;;;;4.87;100.00;98559.95;3700245;79;42561;-18
2021/03/10 09:34:38;;;;;;;27.13;15.90;;;;;;;4.99;100.00;98563.95;3720431;79;43679;-17
2021/03/10 09:39:47;;;;;;;26.80;15.77;;;;;;;4.94;100.00;98563.82;3713207;78;44558;-19
2021/03/10 09:44:57;;;;;;;26.30;15.03;;;;;;;5.00;100.00;98562.48;3676847;79;26309;-17
2021/03/10 09:50:06;;;;;;;26.77;15.63;;;;;;;5.25;100.00;98567.20;3694120;79;26351;-17
2021/03/10 09:55:18;;;;;;;24.80;14.50;;;;;;;5.09;100.00;98566.25;3677314;79;26397;-17
2021/03/10 10:00:26;;;;;;;22.20;13.60;;;;;;;5.23;100.00;98564.62;3699570;79;26292;-17
2021/03/10 10:05:34;;;;;;;25.83;14.67;;;;;;;5.33;100.00;98550.55;3663869;79;43309;-17
2021/03/10 10:10:43;;;;;;;23.37;14.20;;;;;;;5.60;100.00;98555.92;3677266;79;44020;-17
2021/03/10 10:15:51;;;;;;;21.03;12.87;;;;;;;5.72;100.00;98560.25;3681310;79;43802;-18
2021/03/10 10:20:57;;;;;;;23.50;14.03;;;;;;;5.93;100.00;98548.77;3669439;79;43439;-18
2021/03/10 10:26:04;;;;;;;22.00;13.17;;;;;;;5.69;100.00;98565.88;3674415;79;27836;-18
2021/03/10 10:31:12;;;;;;;20.70;12.90;;;;;;;5.60;100.00;98558.13;3675344;79;26396;-18
2021/03/10 10:36:19;;;;;;;21.73;13.20;;;;;;;5.64;100.00;98562.25;3700149;79;44015;-18
2021/03/10 10:41:26;;;;;;;23.07;13.77;;;;;;;5.91;100.00;98559.58;3699940;78;43360;-18
2021/03/10 10:46:32;;;;;;;20.77;12.60;;;;;;;5.81;100.00;98560.86;3695687;78;43308;-18
2021/03/10 10:51:39;;;;;;;22.10;12.97;;;;;;;6.11;98.78;98554.44;3682290;79;43961;-18
2021/03/10 10:56:46;;;;;;;24.07;13.60;;;;;;;6.11;95.65;98557.94;3695560;79;26354;-18
2021/03/10 11:01:54;;;;;;;22.13;13.37;;;;;;;6.25;95.82;98555.93;3676403;79;26827;-18
2021/03/10 11:07:00;;;;;;;20.87;13.10;;;;;;;6.31;97.26;98551.38;3699544;79;74326;-18
2021/03/10 11:12:11;;;;;;;18.70;11.97;;;;;;;6.31;90.29;98555.39;3690628;79;44241;-18
2021/03/10 11:17:19;;;;;;;17.90;11.23;;;;;;;6.53;90.27;98552.20;3675813;79;26917;-18
2021/03/10 11:22:26;;;;;;;19.60;12.00;;;;;;;6.58;85.32;98556.69;3681925;79;26367;-18
2021/03/10 11:27:33;;;;;;;18.40;11.60;;;;;;;6.42;89.95;98548.62;3635118;80;43988;-18
2021/03/10 11:32:41;;;;;;;19.97;11.80;;;;;;;6.62;87.11;98540.73;3687286;79;44464;-18
2021/03/10 11:37:48;;;;;;;20.67;11.70;;;;;;;6.65;80.88;98535.59;3681212;79;26649;-18
2021/03/10 11:42:55;;;;;;;19.12;12.10;;;;;;;6.77;83.19;98520.63;3669624;79;77415;-18
2021/03/10 11:48:01;;;;;;;20.53;11.43;;;;;;;6.86;80.48;98514.13;3651570;79;43694;-18
2021/03/10 11:53:08;;;;;;;21.40;12.00;;;;;;;6.74;80.26;98506.19;3660929;79;43296;-18
2021/03/10 11:58:15;;;;;;;19.07;12.17;;;;;;;6.60;79.98;98511.90;3699427;79;43766;-18
2021/03/10 12:03:23;;;;;;;18.87;12.03;;;;;;;6.85;79.36;98511.09;3702827;79;44047;-18
2021/03/10 12:08:32;;;;;;;19.23;12.20;;;;;;;6.98;81.50;98507.69;3718645;79;77878;-18
2021/03/10 12:13:38;;;;;;;19.83;11.77;;;;;;;6.91;81.97;98511.88;3691092;79;43923;-18
2021/03/10 12:18:44;;;;;;;17.13;11.30;;;;;;;7.44;83.25;98508.05;3706324;79;44926;-17
2021/03/10 12:23:52;;;;;;;20.25;12.68;;;;;;;7.75;76.27;98503.06;3688413;79;44083;-18
2021/03/10 12:28:59;;;;;;;18.73;11.30;;;;;;;8.06;75.48;98501.06;3698110;79;43726;-18
2021/03/10 12:34:06;;;;;;;18.87;11.57;;;;;;;8.30;73.20;98486.33;3687034;79;44044;-18
2021/03/10 12:39:12;;;;;;;17.32;10.85;;;;;;;8.06;70.28;98491.67;3681581;79;43041;-18
2021/03/10 12:44:19;;;;;;;18.90;11.88;;;;;;;8.01;70.47;98488.56;3661364;79;44071;-18
2021/03/10 12:49:25;;;;;;;16.30;10.93;;;;;;;8.46;68.74;98487.06;3545641;82;43385;-18
2021/03/10 12:54:31;;;;;;;17.90;11.33;;;;;;;8.08;65.68;98476.77;3671664;80;44067;-19
2021/03/10 12:59:37;;;;;;;17.98;11.15;;;;;;;8.32;70.58;98477.13;3660117;79;43059;-18
2021/03/10 13:04:44;;;;;;;19.37;12.30;;;;;;;8.20;70.02;98468.90;3673146;79;43704;-18
2021/03/10 13:09:52;;;;;;;20.33;12.00;;;;;;;8.10;72.71;98470.28;3669961;79;43718;-18
2021/03/10 13:14:58;;;;;;;19.10;11.60;;;;;;;8.07;71.95;98465.67;3676874;80;43326;-18
2021/03/10 13:20:05;;;;;;;18.87;11.12;;;;;;;8.11;67.62;98459.04;3636560;79;44063;-18
2021/03/10 13:25:14;;;;;;;17.90;11.17;;;;;;;8.16;69.71;98465.66;3673427;80;44432;-18
2021/03/10 13:30:21;;;;;;;17.40;10.53;;;;;;;8.62;66.95;98455.58;3654685;79;44541;-18
2021/03/10 13:35:27;;;;;;;16.77;10.90;;;;;;;8.86;69.21;98443.45;3659866;79;43310;-18
2021/03/10 13:40:33;;;;;;;15.73;10.13;;;;;;;8.57;62.87;98439.92;3671710;79;43388;-18
2021/03/10 13:45:40;;;;;;;18.40;11.30;;;;;;;8.35;64.90;98433.55;3709339;79;43313;-18
2021/03/10 13:50:47;;;;;;;16.83;10.80;;;;;;;8.31;67.86;98439.20;3695294;79;77377;-19
2021/03/10 13:55:55;;;;;;;16.97;10.82;;;;;;;8.92;65.28;98436.98;3714659;79;44420;-19
2021/03/10 14:01:01;;;;;;;18.87;11.22;;;;;;;8.60;64.86;98430.23;3704407;79;43690;-19
2021/03/10 14:06:09;;;;;;;16.50;11.03;;;;;;;8.26;62.00;98424.05;3712928;79;44034;-18
2021/03/10 14:11:17;;;;;;;18.15;10.18;;;;;;;8.36;62.87;98439.27;3695409;79;43526;-19
2021/03/10 14:16:23;;;;;;;19.57;11.17;;;;;;;8.24;68.58;98434.08;3694853;79;43996;-19
2021/03/10 14:21:30;;;;;;;17.73;10.85;;;;;;;8.18;68.34;98429.28;3680711;79;43677;-18
2021/03/10 14:26:36;;;;;;;17.17;10.73;;;;;;;8.04;66.97;98431.94;3695457;79;44069;-19
2021/03/10 14:31:43;;;;;;;20.88;11.53;;;;;;;7.69;64.42;98426.70;3679001;79;44125;-19
2021/03/10 14:36:49;;;;;;;18.97;10.73;;;;;;;7.71;65.35;98421.55;3703378;79;77329;-19
2021/03/10 14:41:55;;;;;;;19.23;10.97;;;;;;;7.80;67.76;98406.44;3679437;78;44148;-18
2021/03/10 14:47:02;;;;;;;17.30;11.00;;;;;;;7.85;67.15;98401.97;3677658;79;43051;-19
2021/03/10 14:52:09;;;;;;;17.32;10.23;;;;;;;7.84;66.67;98398.94;3666837;79;43290;-18
2021/03/10 14:57:14;;;;;;;18.50;11.03;;;;;;;7.93;68.40;98384.69;3704916;79;44032;-17
2021/03/10 15:02:22;;;;;;;16.12;10.65;;;;;;;8.11;68.07;98385.25;3687263;79;44184;-19
2021/03/10 15:07:28;;;;;;;15.80;10.18;;;;;;;8.16;69.80;98383.81;3682212;79;77275;-19
2021/03/10 15:12:34;;;;;;;16.52;10.48;;;;;;;9.05;62.87;98378.00;3685145;79;43405;-19
2021/03/10 15:17:40;;;;;;;15.45;9.65;;;;;;;8.87;59.06;98373.47;3676274;79;43755;-19
2021/03/10 15:22:47;;;;;;;14.80;10.03;;;;;;;8.82;65.22;98375.75;3690864;79;42945;-19
2021/03/10 15:27:55;;;;;;;15.95;9.70;;;;;;;8.55;65.58;98376.11;3683013;79;44443;-19
2021/03/10 15:33:01;;;;;;;15.63;9.83;;;;;;;8.30;65.89;98371.74;3693135;79;43459;-19
2021/03/10 15:38:08;;;;;;;15.90;10.50;;;;;;;8.30;66.73;98366.89;3693609;79;44189;-19
2021/03/10 15:43:15;;;;;;;15.95;9.68;;;;;;;8.53;64.42;98362.50;3691173;79;44082;-18
2021/03/10 15:48:21;;;;;;;14.58;9.80;;;;;;;8.92;67.78;98361.75;3682642;79;43625;-19
2021/03/10 15:53:28;;;;;;;15.25;9.48;;;;;;;8.71;66.11;98349.94;3675827;79;44091;-19
2021/03/10 15:58:34;;;;;;;15.88;10.35;;;;;;;8.52;66.37;98355.44;3679575;79;44045;-19
2021/03/10 16:03:43;;;;;;;14.25;9.90;;;;;;;8.13;70.36;98341.68;3690676;79;43429;-17
2021/03/10 16:08:50;;;;;;;13.30;9.10;;;;;;;7.97;67.43;98344.99;3716219;79;43333;-18
2021/03/10 16:13:56;;;;;;;15.15;10.15;;;;;;;7.73;70.33;98328.03;3720430;79;44141;-19
2021/03/10 16:19:03;;;;;;;14.58;9.95;;;;;;;7.66;70.51;98323.27;3734638;79;42806;-19
2021/03/10 16:24:10;;;;;;;15.40;9.45;;;;;;;7.60;72.68;98316.30;3730850;79;44002;-17
2021/03/10 16:29:17;;;;;;;15.13;9.70;;;;;;;7.35;73.14;98322.63;3698009;79;43700;-18
2021/03/10 16:34:27;;;;;;;14.33;9.63;;;;;;;7.22;73.93;98327.78;3730877;79;44628;-19
2021/03/10 16:39:34;;;;;;;15.33;9.57;;;;;;;7.05;76.38;98324.49;3693764;79;43443;-18
2021/03/10 16:44:41;;;;;;;14.50;9.93;;;;;;;6.90;74.55;98316.87;3739490;78;43714;-18
2021/03/10 16:49:50;;;;;;;16.17;9.63;;;;;;;6.76;77.66;98320.79;3760531;78;75439;-31
2021/03/10 16:54:57;;;;;;;13.45;8.68;;;;;;;6.63;79.47;98320.23;3749299;78;43484;-17
2021/03/10 17:00:04;;;;;;;13.20;8.67;;;;;;;6.46;79.36;98318.58;3676110;79;44081;-18
2021/03/10 17:05:12;;;;;;;14.70;9.33;;;;;;;6.36;81.35;98311.02;3604479;81;43463;-19
2021/03/10 17:10:18;;;;;;;16.13;10.27;;;;;;;6.30;81.77;98318.23;3707135;79;43677;-18
2021/03/10 17:15:24;;;;;;;16.13;9.50;;;;;;;6.17;82.43;98309.97;3718842;77;44072;-18
2021/03/10 17:20:32;;;;;;;15.43;9.53;;;;;;;6.00;83.50;98310.63;3745111;78;44070;-17
2021/03/10 17:25:38;;;;;;;14.00;9.33;;;;;;;5.83;84.47;98312.91;3722448;79;75835;-17
2021/03/10 17:30:47;;;;;;;11.53;8.20;;;;;;;5.69;85.79;98314.63;3694202;79;43712;-18
2021/03/10 17:35:53;;;;;;;13.07;8.77;;;;;;;5.55;86.86;98317.13;3658281;81;44128;-17
2021/03/10 17:40:59;;;;;;;14.03;9.27;;;;;;;5.46;87.48;98332.62;3695453;79;43363;-18
2021/03/10 17:46:07;;;;;;;16.97;9.73;;;;;;;5.38;87.37;98334.13;3693338;79;44055;-18
2021/03/10 17:51:14;;;;;;;15.40;9.90;;;;;;;5.20;90.61;98343.21;3696542;79;43325;-18
2021/03/10 17:56:20;;;;;;;15.60;9.27;;;;;;;5.12;90.33;98349.66;3694415;79;43061;-18
2021/03/10 18:01:26;;;;;;;14.23;9.27;;;;;;;5.02;89.81;98347.41;3660770;80;44047;-17
2021/03/10 18:06:32;;;;;;;16.53;10.03;;;;;;;4.93;91.42;98337.86;3693244;79;44090;-17
2021/03/10 18:11:41;;;;;;;18.87;9.83;;;;;;;4.88;92.41;98334.70;3696061;79;44081;-18
2021/03/10 18:16:48;;;;;;;16.30;9.93;;;;;;;4.81;91.64;98319.36;3660977;81;44090;-18
2021/03/10 18:21:54;;;;;;;22.07;11.57;;;;;;;4.76;92.95;98313.07;3723489;79;43719;-18
2021/03/10 18:27:00;;;;;;;18.17;10.23;;;;;;;4.70;93.35;98308.22;3668251;80;44237;-18
2021/03/10 18:32:09;;;;;;;19.47;10.80;;;;;;;4.65;93.10;98295.27;3738021;78;43437;-18
2021/03/10 18:37:16;;;;;;;19.23;11.03;;;;;;;4.59;93.94;98299.29;3639220;81;43275;-18
2021/03/10 18:42:23;;;;;;;17.40;10.40;;;;;;;4.58;94.02;98281.58;3672273;79;43297;-17
2021/03/10 18:47:31;;;;;;;19.00;10.63;;;;;;;4.52;94.93;98280.77;3696131;79;44034;-23
2021/03/10 18:52:38;;;;;;;21.13;11.57;;;;;;;4.47;95.06;98281.62;3656584;81;43271;-17
2021/03/10 18:57:43;;;;;;;20.27;11.50;;;;;;;4.47;95.82;98283.78;3694918;79;43549;-27
2021/03/10 19:02:50;;;;;;;21.33;12.40;;;;;;;4.44;96.44;98277.86;3752495;79;43785;-17
2021/03/10 19:07:57;;;;;;;25.83;13.30;;;;;;;4.43;96.94;98277.03;3748383;79;43697;-17
2021/03/10 19:13:05;;;;;;;23.40;12.80;;;;;;;4.36;97.73;98278.98;3630658;80;43189;-17
2021/03/10 19:18:12;;;;;;;23.13;13.03;;;;;;;4.34;98.60;98276.92;3673279;79;43531;-17
2021/03/10 19:23:19;;;;;;;24.80;12.93;;;;;;;4.31;98.76;98263.36;3734576;79;43442;-17
2021/03/10 19:28:27;;;;;;;24.20;12.87;;;;;;;4.25;99.52;98266.05;3630369;81;44066;-17
2021/03/10 19:33:35;;;;;;;21.97;11.93;;;;;;;4.25;100.00;98262.05;3676959;79;43489;-17
2021/03/10 19:38:40;;;;;;;22.13;11.47;;;;;;;4.27;100.00;98259.23;3632654;81;44218;-18
2021/03/10 19:43:46;;;;;;;21.47;11.87;;;;;;;4.25;100.00;98250.52;3738246;79;44541;-17
2021/03/10 19:48:53;;;;;;;24.20;12.47;;;;;;;4.23;100.00;98243.98;3643949;79;44583;-17
2021/03/10 19:53:59;;;;;;;24.47;12.30;;;;;;;4.16;100.00;98238.30;3720769;78;43705;-17
2021/03/10 19:59:05;;;;;;;23.03;12.07;;;;;;;4.16;100.00;98232.97;3738171;78;43380;-18
2021/03/10 20:04:11;;;;;;;23.73;12.87;;;;;;;4.14;100.00;98212.24;3739544;78;43525;-18
2021/03/10 20:09:17;;;;;;;24.90;13.43;;;;;;;4.15;100.00;98199.78;3710880;78;43005;-18
2021/03/10 20:14:23;;;;;;;23.27;12.93;;;;;;;4.12;100.00;98197.36;3721831;78;43742;-18
2021/03/10 20:19:29;;;;;;;24.53;13.20;;;;;;;4.10;100.00;98188.16;3707658;79;43402;-17
2021/03/10 20:24:35;;;;;;;24.97;13.63;;;;;;;4.13;100.00;98179.89;3722341;78;43611;-16
2021/03/10 20:29:42;;;;;;;24.93;13.27;;;;;;;4.06;100.00;98172.55;3717918;78;44050;-17
2021/03/10 20:34:49;;;;;;;25.30;12.90;;;;;;;4.07;100.00;98159.55;3710455;78;44075;-18
2021/03/10 20:39:55;;;;;;;23.70;13.60;;;;;;;4.08;100.00;98158.58;3733213;78;44023;-17
2021/03/10 20:45:02;;;;;;;23.97;13.07;;;;;;;4.05;99.53;98149.52;3748921;78;43383;-17
2021/03/10 20:50:11;;;;;;;24.37;12.93;;;;;;;4.03;100.00;98143.47;3736610;78;44050;-19
2021/03/10 20:55:19;;;;;;;23.67;12.67;;;;;;;4.03;99.22;98138.14;3712902;79;43350;-19
2021/03/10 21:00:26;;;;;;;24.03;12.93;;;;;;;3.98;99.20;98130.02;3709484;78;43714;-19
2021/03/10 21:05:32;;;;;;;25.73;12.43;;;;;;;4.00;99.01;98120.56;3708929;78;43497;-19
2021/03/10 21:10:38;;;;;;;21.87;11.73;;;;;;;4.01;99.57;98116.45;3696219;79;43552;-19
2021/03/10 21:15:44;;;;;;;23.40;12.43;;;;;;;3.98;99.50;98098.04;3709140;79;44062;-19
2021/03/10 21:20:50;;;;;;;23.87;12.17;;;;;;;3.98;99.84;98095.87;3705230;79;44192;-19
2021/03/10 21:25:57;;;;;;;24.50;12.57;;;;;;;3.97;100.00;98096.84;3719617;78;43055;-19
2021/03/10 21:31:03;;;;;;;22.77;12.70;;;;;;;3.94;99.58;98093.92;3703242;78;42597;-19
2021/03/10 21:36:10;;;;;;;23.23;12.23;;;;;;;3.92;99.20;98085.23;3594188;82;44026;-20
2021/03/10 21:41:19;;;;;;;23.87;12.20;;;;;;;3.88;99.26;98083.79;3731387;78;44030;-20
2021/03/10 21:46:25;;;;;;;23.07;12.27;;;;;;;3.87;99.15;98070.11;3711045;78;43694;-20
2021/03/10 21:51:32;;;;;;;23.10;12.10;;;;;;;3.84;98.77;98051.70;3746863;77;44089;-19
2021/03/10 21:56:38;;;;;;;22.27;11.87;;;;;;;3.77;98.77;98042.03;3749775;79;43436;-20
2021/03/10 22:01:44;;;;;;;23.47;12.00;;;;;;;3.77;99.52;98027.87;3749765;77;43354;-20
2021/03/10 22:06:51;;;;;;;20.00;11.17;;;;;;;3.75;99.98;98029.82;3749749;78;43694;-20
2021/03/10 22:11:57;;;;;;;23.10;12.63;;;;;;;3.75;99.13;98009.84;3749825;77;44122;-20
2021/03/10 22:17:03;;;;;;;24.53;12.63;;;;;;;3.70;99.34;98007.06;3660775;79;43577;-19
2021/03/10 22:22:09;;;;;;;19.40;11.23;;;;;;;3.68;99.23;97998.38;3749883;77;44034;-20
2021/03/10 22:27:16;;;;;;;22.67;12.47;;;;;;;3.64;99.70;97986.78;3702249;78;42760;-20
2021/03/10 22:32:22;;;;;;;20.57;11.43;;;;;;;3.61;98.90;97975.87;3750835;78;43389;-19
2021/03/10 22:37:29;;;;;;;22.97;12.20;;;;;;;3.64;99.02;97966.80;3749932;79;42558;-20
2021/03/10 22:42:36;;;;;;;21.73;12.10;;;;;;;3.60;98.64;97952.03;3742913;77;44025;-20
2021/03/10 22:47:42;;;;;;;22.17;12.20;;;;;;;3.64;98.62;97944.16;3747888;78;43367;-20
2021/03/10 22:52:48;;;;;;;20.70;11.40;;;;;;;3.62;97.73;97939.44;3748330;78;42651;-18
2021/03/10 22:57:54;;;;;;;20.43;11.10;;;;;;;3.62;96.92;97926.95;3749357;78;43725;-19
2021/03/10 23:03:01;;;;;;;21.20;11.97;;;;;;;3.60;96.81;97918.23;3748082;77;43427;-19
2021/03/10 23:08:08;;;;;;;21.17;11.03;;;;;;;3.61;95.09;97913.27;3749898;79;43384;-19
2021/03/10 23:13:14;;;;;;;21.63;11.13;;;;;;;3.65;95.68;97896.06;3746985;77;44661;-18
2021/03/10 23:18:20;;;;;;;20.90;11.50;;;;;;;3.69;95.94;97896.17;3748171;78;43040;-18
2021/03/10 23:23:27;;;;;;;20.67;11.90;;;;;;;3.70;95.57;97901.00;3749828;77;43701;-17
2021/03/10 23:28:33;;;;;;;20.67;11.37;;;;;;;3.74;92.86;97893.11;3747145;78;43455;-19
2021/03/10 23:33:40;;;;;;;18.40;11.40;;;;;;;3.77;94.39;97882.17;3749972;77;44822;-19
2021/03/10 23:38:47;;;;;;;18.43;11.00;;;;;;;3.82;93.69;97871.14;3749804;79;44110;-19
2021/03/10 23:43:53;;;;;;;21.47;11.37;;;;;;;3.82;93.27;97859.16;3748955;77;44766;-19